Time;durP1;ratioP1;P1;durP2;ratioP2;P2;SDS_P1;SDS_P2;PMS_P1;PMS_P2;Temp;Humidity;BMP_temperature;BMP_pressure;BME280_temperature;BME280_humidity;BME280_pressure;Samples;Min_cycle;Max_cycle;Signal;HPM_P1;HPM_P2
2023/07/09 00:00:18;;;;;;;13.60;7.85;;;;;;;22.84;54.16;101154.19;682622;28;1099;-81
2023/07/09 00:00:40;;;;;;;13.20;8.03;;;;;;;22.84;54.20;101152.41;689852;28;1024;-81
2023/07/09 00:01:00;;;;;;;12.27;7.80;;;;;;;22.88;54.20;101169.22;687683;28;989;-81
2023/07/09 00:01:21;;;;;;;12.57;8.52;;;;;;;22.88;54.16;101166.53;682053;29;1097;-81
2023/07/09 00:01:42;;;;;;;12.00;8.23;;;;;;;22.84;54.33;101155.06;687646;28;1109;-81
2023/07/09 00:02:03;;;;;;;12.63;8.85;;;;;;;22.87;54.43;101162.13;682066;29;1405;-82
2023/07/09 00:02:25;;;;;;;12.65;8.32;;;;;;;22.90;54.33;101170.03;687376;28;1116;-81
2023/07/09 00:02:46;;;;;;;14.00;8.63;;;;;;;22.89;54.23;101160.31;682419;29;1922;-81
2023/07/09 00:03:10;;;;;;;17.60;8.50;;;;;;;22.90;54.22;101167.38;687653;28;1024;-81
2023/07/09 00:03:31;;;;;;;18.05;8.60;;;;;;;22.84;53.98;101157.72;685060;28;830;-81
2023/07/09 00:03:53;;;;;;;16.52;8.30;;;;;;;22.80;54.03;101155.16;685035;28;1101;-81
2023/07/09 00:04:14;;;;;;;13.18;7.80;;;;;;;22.80;54.39;101160.47;686961;28;1163;-81
2023/07/09 00:04:34;;;;;;;12.05;7.75;;;;;;;22.75;54.26;101152.56;687804;28;1239;-82
2023/07/09 00:04:55;;;;;;;10.95;8.10;;;;;;;22.74;54.44;101157.00;681098;28;1050;-82
2023/07/09 00:05:16;;;;;;;11.37;8.27;;;;;;;22.77;54.62;101160.50;684787;28;1076;-81
2023/07/09 00:05:37;;;;;;;11.20;8.10;;;;;;;22.73;54.61;101149.94;679335;28;1058;-81
2023/07/09 00:05:58;;;;;;;10.65;7.80;;;;;;;22.71;54.73;101148.19;679817;29;1037;-81
2023/07/09 00:06:19;;;;;;;11.38;8.20;;;;;;;22.74;54.52;101158.78;681998;29;1266;-81
2023/07/09 00:06:40;;;;;;;11.80;8.40;;;;;;;22.77;54.52;101165.84;685191;28;823;-81
2023/07/09 00:07:03;;;;;;;12.27;8.43;;;;;;;22.72;54.42;101158.81;687103;28;1101;-81
2023/07/09 00:07:29;;;;;;;13.57;8.15;;;;;;;22.72;54.58;101160.59;684626;28;1372;-81
2023/07/09 00:07:50;;;;;;;15.35;7.88;;;;;;;22.76;54.75;101164.97;679661;28;1330;-81
2023/07/09 00:08:29;;;;;;;15.57;8.00;;;;;;;22.73;55.00;101159.69;681951;28;1132;-82
2023/07/09 00:08:50;;;;;;;12.77;8.07;;;;;;;22.78;55.20;101160.50;679563;28;1005;-81
2023/07/09 00:09:21;;;;;;;12.20;8.18;;;;;;;22.79;55.17;101166.72;679179;29;1750;-81
2023/07/09 00:09:42;;;;;;;12.95;8.35;;;;;;;22.80;55.31;101165.81;685264;28;2077;-81
2023/07/09 00:10:03;;;;;;;14.75;8.50;;;;;;;22.73;55.25;101149.94;687484;28;1291;-81
2023/07/09 00:10:24;;;;;;;15.63;8.00;;;;;;;22.80;55.35;101161.34;688772;28;1712;-81
2023/07/09 00:10:44;;;;;;;16.25;8.10;;;;;;;22.84;55.22;101165.72;682239;28;1287;-81
2023/07/09 00:11:05;;;;;;;14.40;8.00;;;;;;;22.74;54.94;101151.69;684974;28;1185;-81
2023/07/09 00:11:26;;;;;;;13.43;7.90;;;;;;;22.84;54.98;101167.50;684804;28;1292;-81
2023/07/09 00:11:47;;;;;;;11.52;7.70;;;;;;;22.74;54.93;101148.13;685579;28;1185;-81
2023/07/09 00:12:14;;;;;;;11.07;7.65;;;;;;;22.82;54.95;101164.84;684148;28;1246;-81
2023/07/09 00:12:34;;;;;;;11.55;7.75;;;;;;;22.79;54.82;101164.06;685167;28;898;-81
2023/07/09 00:12:55;;;;;;;12.25;7.90;;;;;;;22.74;54.94;101162.31;682139;28;1023;-82
2023/07/09 00:13:16;;;;;;;13.57;8.53;;;;;;;22.74;55.09;101159.66;682084;28;1195;-82
2023/07/09 00:13:37;;;;;;;13.70;8.60;;;;;;;22.74;55.20;101157.00;685265;28;899;-81
2023/07/09 00:13:57;;;;;;;13.50;8.80;;;;;;;22.71;55.02;101162.41;682710;28;1709;-81
2023/07/09 00:14:18;;;;;;;12.17;8.67;;;;;;;22.69;55.31;101156.19;684362;28;1174;-83
2023/07/09 00:14:39;;;;;;;11.90;8.50;;;;;;;22.74;55.44;101167.66;685140;28;1154;-82
2023/07/09 00:15:00;;;;;;;10.95;7.85;;;;;;;22.64;55.31;101143.88;679745;29;930;-82
2023/07/09 00:15:21;;;;;;;10.80;7.50;;;;;;;22.72;55.23;101163.25;687333;28;1242;-82
2023/07/09 00:15:42;;;;;;;11.30;7.80;;;;;;;22.71;55.07;101162.41;687254;28;897;-81
2023/07/09 00:16:11;;;;;;;12.35;8.20;;;;;;;22.72;55.32;101164.16;690114;28;1281;-81
2023/07/09 00:16:32;;;;;;;12.82;8.68;;;;;;;22.68;55.36;101154.44;686309;28;902;-81
2023/07/09 00:16:53;;;;;;;12.00;8.53;;;;;;;22.67;55.25;101150.03;676910;28;1149;-81
2023/07/09 00:17:26;;;;;;;11.63;8.23;;;;;;;22.74;55.50;101165.00;681532;29;1262;-82
2023/07/09 00:17:47;;;;;;;12.85;8.30;;;;;;;22.68;55.57;101156.25;679529;29;1016;-82
2023/07/09 00:18:09;;;;;;;13.18;8.50;;;;;;;22.70;55.37;101163.28;679563;29;1097;-81
2023/07/09 00:18:30;;;;;;;16.50;8.32;;;;;;;22.64;55.62;101155.41;679692;28;1277;-82
2023/07/09 00:18:51;;;;;;;16.55;8.00;;;;;;;22.66;55.57;101158.03;679658;29;1376;-82
2023/07/09 00:19:16;;;;;;;15.93;7.80;;;;;;;22.69;55.80;101164.19;682065;29;1038;-82
2023/07/09 00:19:37;;;;;;;13.20;8.00;;;;;;;22.60;56.13;101159.00;682481;29;1379;-81
2023/07/09 00:19:58;;;;;;;11.23;8.00;;;;;;;22.65;56.18;101165.16;682219;28;1314;-81
2023/07/09 00:20:19;;;;;;;11.55;8.13;;;;;;;22.58;55.90;101156.38;676878;29;1087;-81
2023/07/09 00:20:43;;;;;;;11.52;8.20;;;;;;;22.57;55.74;101153.75;682504;29;709;-81
2023/07/09 00:21:03;;;;;;;12.30;8.50;;;;;;;22.58;55.84;101161.69;682368;29;1223;-82
2023/07/09 00:21:24;;;;;;;14.10;8.83;;;;;;;22.61;55.95;101152.78;682167;28;992;-82
2023/07/09 00:21:47;;;;;;;15.50;8.65;;;;;;;22.61;56.18;101168.75;682641;29;779;-82
2023/07/09 00:22:16;;;;;;;15.25;8.57;;;;;;;22.59;56.49;101154.59;684707;28;1140;-81
2023/07/09 00:22:37;;;;;;;13.50;8.70;;;;;;;22.63;56.34;101166.06;687404;28;1272;-81
2023/07/09 00:22:57;;;;;;;13.07;8.43;;;;;;;22.59;56.45;101163.47;685257;28;1919;-81
2023/07/09 00:23:20;;;;;;;11.57;8.03;;;;;;;22.55;56.11;101159.09;676729;28;1348;-81
2023/07/09 00:23:41;;;;;;;12.30;8.20;;;;;;;22.61;56.06;101166.09;682491;28;1033;-81
2023/07/09 00:24:04;;;;;;;12.90;9.10;;;;;;;22.57;56.24;101165.25;679635;29;1108;-82
2023/07/09 00:24:26;;;;;;;12.68;9.00;;;;;;;22.59;56.10;101165.25;684728;28;1260;-81
2023/07/09 00:24:50;;;;;;;13.90;8.25;;;;;;;22.59;56.28;101173.22;682784;29;1095;-82
2023/07/09 00:25:16;;;;;;;13.30;7.72;;;;;;;22.52;56.16;101151.19;687781;28;1164;-81
2023/07/09 00:25:37;;;;;;;13.05;8.23;;;;;;;22.56;56.74;101179.47;679634;28;1225;-81
2023/07/09 00:25:57;;;;;;;14.43;8.88;;;;;;;22.55;56.46;101172.38;685386;28;1169;-82
2023/07/09 00:26:23;;;;;;;15.77;8.97;;;;;;;22.51;56.42;101164.50;682168;29;1205;-81
2023/07/09 00:26:44;;;;;;;15.75;9.00;;;;;;;22.48;56.69;101159.22;680301;29;803;-81
2023/07/09 00:27:09;;;;;;;12.95;9.02;;;;;;;22.52;56.74;101160.91;679997;29;1085;-81
2023/07/09 00:27:32;;;;;;;12.30;8.55;;;;;;;22.52;56.83;101166.25;680021;29;1435;-82
2023/07/09 00:27:53;;;;;;;12.63;8.20;;;;;;;22.46;57.08;101160.09;682416;29;1102;-81
2023/07/09 00:28:15;;;;;;;13.18;8.20;;;;;;;22.51;57.00;101169.81;682497;29;966;-81
2023/07/09 00:28:36;;;;;;;12.95;8.25;;;;;;;22.41;57.18;101169.06;682872;28;1721;-82
2023/07/09 00:28:56;;;;;;;12.65;8.23;;;;;;;22.40;57.15;101173.53;685381;28;1159;-81
2023/07/09 00:29:18;;;;;;;12.60;8.27;;;;;;;22.37;57.35;101167.38;680806;29;1006;-81
2023/07/09 00:29:39;;;;;;;14.45;8.90;;;;;;;22.35;57.35;101158.50;680349;29;1087;-80
2023/07/09 00:30:00;;;;;;;15.85;9.45;;;;;;;22.35;57.47;101164.72;682765;29;1001;-81
2023/07/09 00:30:22;;;;;;;18.58;9.65;;;;;;;22.32;57.45;101157.66;685123;28;1356;-83
2023/07/09 00:30:47;;;;;;;17.55;9.40;;;;;;;22.42;57.49;101171.72;688259;28;787;-82
2023/07/09 00:31:14;;;;;;;15.07;9.00;;;;;;;22.36;57.74;101166.47;682613;28;1303;-81
2023/07/09 00:31:38;;;;;;;12.73;8.82;;;;;;;22.36;57.53;101165.63;683029;29;795;-81
2023/07/09 00:31:59;;;;;;;13.57;8.90;;;;;;;22.39;57.68;101166.44;688026;28;1282;-81
2023/07/09 00:32:20;;;;;;;13.93;8.90;;;;;;;22.36;57.64;101161.16;690607;28;1190;-82
2023/07/09 00:32:43;;;;;;;13.32;9.32;;;;;;;22.34;57.62;101157.66;685535;28;1211;-81
2023/07/09 00:33:04;;;;;;;15.25;9.20;;;;;;;22.32;57.60;101156.81;685235;28;1394;-81
2023/07/09 00:33:31;;;;;;;16.63;9.23;;;;;;;22.38;57.58;101164.66;685280;28;1100;-82
2023/07/09 00:33:52;;;;;;;15.70;9.82;;;;;;;22.38;57.70;101167.31;687226;28;1323;-81
2023/07/09 00:34:17;;;;;;;14.13;10.27;;;;;;;22.32;57.56;101155.00;689742;28;1232;-81
2023/07/09 00:34:38;;;;;;;13.02;9.90;;;;;;;22.37;57.59;101164.72;690910;28;1162;-81
2023/07/09 00:35:00;;;;;;;13.05;9.52;;;;;;;22.28;57.69;101147.09;687906;28;1254;-81
2023/07/09 00:35:23;;;;;;;12.82;9.40;;;;;;;22.30;57.58;101156.81;682427;28;1374;-81
2023/07/09 00:35:48;;;;;;;15.00;9.63;;;;;;;22.25;57.50;101147.13;685475;28;1208;-81
2023/07/09 00:36:15;;;;;;;15.00;9.60;;;;;;;22.30;57.43;101159.47;687834;28;1135;-80
2023/07/09 00:36:36;;;;;;;15.38;9.55;;;;;;;22.27;57.37;101156.88;685560;28;1373;-81
2023/07/09 00:36:57;;;;;;;12.25;8.98;;;;;;;22.25;57.24;101153.34;680138;29;967;-81
2023/07/09 00:37:21;;;;;;;11.95;8.77;;;;;;;22.29;57.30;101167.47;682628;28;1305;-82
2023/07/09 00:37:43;;;;;;;11.90;8.90;;;;;;;22.27;57.28;101163.97;685624;28;1369;-82
2023/07/09 00:38:04;;;;;;;15.18;10.10;;;;;;;22.21;57.44;101161.34;685434;28;1118;-81
2023/07/09 00:38:26;;;;;;;17.90;11.60;;;;;;;22.12;57.44;101155.28;687771;28;1088;-81
2023/07/09 00:38:47;;;;;;;20.33;12.93;;;;;;;22.14;57.34;101161.44;688108;28;1143;-81
2023/07/09 00:39:20;;;;;;;21.40;13.80;;;;;;;22.16;57.29;101159.66;679120;29;1071;-82
2023/07/09 00:39:41;;;;;;;24.10;15.43;;;;;;;22.14;57.28;101161.44;683009;29;1252;-81
2023/07/09 00:40:02;;;;;;;24.30;16.27;;;;;;;22.02;57.27;101151.00;682722;28;1155;-82
2023/07/09 00:40:25;;;;;;;25.02;17.38;;;;;;;22.05;57.49;101165.13;685254;28;969;-81
2023/07/09 00:40:56;;;;;;;23.60;17.48;;;;;;;22.04;57.19;101160.72;687884;28;1287;-82
2023/07/09 00:41:20;;;;;;;24.10;18.15;;;;;;;22.07;57.45;101170.41;685401;28;1246;-82
2023/07/09 00:41:42;;;;;;;24.13;18.27;;;;;;;21.99;57.27;101161.66;682912;28;1363;-81
2023/07/09 00:42:02;;;;;;;25.08;18.77;;;;;;;21.97;57.22;101163.47;685175;28;1052;-81
2023/07/09 00:42:23;;;;;;;25.63;18.60;;;;;;;21.94;57.39;101174.13;687829;28;1160;-82
2023/07/09 00:42:46;;;;;;;24.17;18.48;;;;;;;21.95;57.29;101168.78;685548;28;1919;-82
2023/07/09 00:43:14;;;;;;;24.17;17.88;;;;;;;21.94;57.27;101168.81;685249;28;1329;-82
2023/07/09 00:43:36;;;;;;;25.65;17.88;;;;;;;21.80;57.43;101161.91;685543;28;930;-81
2023/07/09 00:43:58;;;;;;;26.15;18.17;;;;;;;21.85;57.68;101170.69;690714;28;952;-81
2023/07/09 00:44:33;;;;;;;25.70;17.98;;;;;;;21.84;57.87;101160.97;682460;28;1029;-81
2023/07/09 00:44:54;;;;;;;23.42;16.90;;;;;;;21.86;58.08;101166.25;682687;28;1447;-82
2023/07/09 00:45:21;;;;;;;23.88;17.17;;;;;;;21.79;57.94;101160.16;685135;28;1033;-81
2023/07/09 00:45:42;;;;;;;22.38;16.50;;;;;;;21.80;58.16;101161.91;682296;29;859;-81
2023/07/09 00:46:19;;;;;;;19.60;15.27;;;;;;;21.82;58.13;101176.03;687880;28;1138;-81
2023/07/09 00:46:46;;;;;;;20.27;15.57;;;;;;;21.81;58.06;101174.28;685616;28;815;-82
2023/07/09 00:47:17;;;;;;;20.65;15.43;;;;;;;21.74;58.11;101164.63;680099;28;1208;-82
2023/07/09 00:47:49;;;;;;;20.10;14.68;;;;;;;21.77;58.32;101178.75;680361;29;736;-82
2023/07/09 00:48:15;;;;;;;20.10;14.57;;;;;;;21.68;58.19;101160.28;680043;29;1155;-81
2023/07/09 00:48:36;;;;;;;18.95;14.25;;;;;;;21.64;58.42;101161.22;682886;28;1263;-81
2023/07/09 00:49:05;;;;;;;19.05;14.50;;;;;;;21.66;58.41;101164.75;682871;29;977;-81
2023/07/09 00:49:46;;;;;;;19.73;14.57;;;;;;;21.68;58.58;101168.25;684562;28;1235;-81
2023/07/09 00:50:27;;;;;;;17.48;12.93;;;;;;;21.69;58.34;101170.00;680054;29;1014;-82
2023/07/09 00:50:52;;;;;;;14.57;11.45;;;;;;;21.62;58.54;101160.34;684092;28;1001;-81
2023/07/09 00:51:16;;;;;;;18.05;11.25;;;;;;;21.64;58.27;101164.75;685838;28;1122;-81
2023/07/09 00:51:42;;;;;;;20.02;11.50;;;;;;;21.66;58.37;101163.84;685464;28;1270;-81
2023/07/09 00:52:35;;;;;;;17.10;11.70;;;;;;;21.66;58.34;101169.16;687987;28;989;-81
2023/07/09 00:53:02;;;;;;;16.42;10.90;;;;;;;21.62;58.31;101169.22;690733;28;1222;-81
2023/07/09 00:53:29;;;;;;;17.27;10.63;;;;;;;21.62;58.32;101174.53;690456;28;1044;-81
2023/07/09 00:53:55;;;;;;;17.75;10.73;;;;;;;21.60;58.65;101167.47;688017;28;996;-81
2023/07/09 00:54:32;;;;;;;15.60;10.73;;;;;;;21.60;58.55;101164.81;682579;28;1407;-82
2023/07/09 00:54:54;;;;;;;15.45;10.32;;;;;;;21.56;58.55;101168.38;682814;28;950;-81
2023/07/09 00:55:20;;;;;;;18.55;10.35;;;;;;;21.57;58.80;101168.38;682447;28;1046;-82
2023/07/09 00:55:45;;;;;;;18.58;10.02;;;;;;;21.53;58.98;101158.69;682414;28;872;-81
2023/07/09 00:56:11;;;;;;;15.40;9.88;;;;;;;21.52;59.05;101156.06;679901;28;1357;-82
2023/07/09 00:56:45;;;;;;;15.52;10.10;;;;;;;21.57;59.04;101160.41;682943;28;869;-81
2023/07/09 00:57:17;;;;;;;17.70;10.52;;;;;;;21.50;59.16;101145.44;687866;28;1005;-81
2023/07/09 00:57:41;;;;;;;16.42;10.10;;;;;;;21.53;59.15;101161.34;685683;28;812;-81
2023/07/09 00:58:06;;;;;;;17.35;9.85;;;;;;;21.51;58.99;101155.16;688003;28;1224;-81
2023/07/09 00:58:28;;;;;;;16.50;9.80;;;;;;;21.57;59.00;101164.84;685228;28;2024;-81
2023/07/09 00:58:48;;;;;;;15.63;9.80;;;;;;;21.55;58.82;101162.22;685396;28;1147;-81
2023/07/09 00:59:15;;;;;;;15.40;10.00;;;;;;;21.53;59.06;101158.69;688715;28;1056;-81
2023/07/09 00:59:36;;;;;;;15.27;9.80;;;;;;;21.50;58.93;101154.31;688172;28;839;-81
2023/07/09 01:00:09;;;;;;;15.82;9.88;;;;;;;21.49;58.99;101151.66;682485;28;1108;-81
2023/07/09 01:00:46;;;;;;;16.23;10.30;;;;;;;21.53;58.85;101164.00;684639;28;901;-81
2023/07/09 01:01:11;;;;;;;15.57;10.38;;;;;;;21.53;59.06;101164.00;682352;28;1110;-81
2023/07/09 01:01:34;;;;;;;14.80;9.70;;;;;;;21.43;58.89;101141.06;685421;28;910;-81
2023/07/09 01:01:57;;;;;;;15.85;9.90;;;;;;;21.44;58.97;101157.00;685341;28;953;-81
2023/07/09 01:02:23;;;;;;;15.43;10.27;;;;;;;21.42;58.99;101149.94;683286;28;1004;-81
2023/07/09 01:02:48;;;;;;;17.65;10.57;;;;;;;21.45;58.97;101160.53;685592;28;1032;-81
2023/07/09 01:03:11;;;;;;;17.00;10.30;;;;;;;21.42;59.27;101163.22;682623;29;1056;-81
2023/07/09 01:03:40;;;;;;;13.32;9.32;;;;;;;21.36;59.15;101151.78;682752;28;810;-81
2023/07/09 01:04:03;;;;;;;12.60;8.70;;;;;;;21.40;59.15;101163.25;680513;28;1225;-81
2023/07/09 01:04:27;;;;;;;14.80;9.43;;;;;;;21.34;59.14;101153.56;682416;28;1286;-82
2023/07/09 01:04:55;;;;;;;16.10;10.18;;;;;;;21.33;59.35;101157.09;682543;29;1234;-81
2023/07/09 01:05:17;;;;;;;18.80;10.43;;;;;;;21.29;59.44;101150.09;683094;28;1211;-81
2023/07/09 01:05:39;;;;;;;17.73;10.50;;;;;;;21.29;59.45;101147.44;679610;29;1345;-81
2023/07/09 01:06:00;;;;;;;17.48;10.48;;;;;;;21.32;59.49;101150.03;687513;28;1262;-82
2023/07/09 01:06:51;;;;;;;15.32;10.43;;;;;;;21.32;59.43;101158.00;687658;28;1363;-81
2023/07/09 01:07:12;;;;;;;16.50;10.32;;;;;;;21.24;59.32;101146.59;687448;28;1142;-81
2023/07/09 01:07:35;;;;;;;16.17;10.20;;;;;;;21.22;59.55;101148.38;685511;28;1340;-81
2023/07/09 01:07:58;;;;;;;15.18;9.95;;;;;;;21.28;59.60;101153.66;690723;28;1214;-81
2023/07/09 01:08:19;;;;;;;15.45;10.20;;;;;;;21.32;59.74;101159.75;684843;28;1366;-81
2023/07/09 01:08:42;;;;;;;16.30;10.30;;;;;;;21.27;59.66;101159.81;682864;29;827;-81
2023/07/09 01:09:04;;;;;;;16.60;10.55;;;;;;;21.27;59.76;101156.31;687173;28;1268;-81
2023/07/09 01:09:25;;;;;;;15.50;10.07;;;;;;;21.21;59.63;101151.94;687669;28;1337;-81
2023/07/09 01:09:46;;;;;;;15.70;10.10;;;;;;;21.21;59.64;101144.84;690870;28;1139;-81
2023/07/09 01:10:07;;;;;;;15.20;10.03;;;;;;;21.22;59.53;101156.34;687898;28;1085;-81
2023/07/09 01:10:28;;;;;;;15.57;10.48;;;;;;;21.25;59.53;101156.31;682617;28;964;-81
2023/07/09 01:10:49;;;;;;;14.25;10.02;;;;;;;21.16;59.36;101143.13;682685;29;1024;-81
2023/07/09 01:11:21;;;;;;;14.60;9.68;;;;;;;21.25;59.47;101163.41;688065;28;1383;-81
2023/07/09 01:11:42;;;;;;;14.60;9.73;;;;;;;21.24;59.41;101162.50;680272;28;822;-81
2023/07/09 01:12:07;;;;;;;15.98;10.20;;;;;;;21.13;59.47;101148.50;677455;29;1105;-81
2023/07/09 01:12:30;;;;;;;15.35;10.05;;;;;;;21.12;59.64;101152.91;682685;28;1253;-81
2023/07/09 01:12:51;;;;;;;19.40;10.80;;;;;;;21.18;59.69;101159.91;682705;29;1017;-81
2023/07/09 01:13:12;;;;;;;17.98;10.80;;;;;;;21.08;59.82;101152.06;685066;28;1362;-81
2023/07/09 01:13:35;;;;;;;17.63;10.60;;;;;;;21.07;59.80;101149.41;685568;28;819;-81
2023/07/09 01:13:59;;;;;;;16.08;10.48;;;;;;;21.05;59.92;101152.09;685357;28;964;-81
2023/07/09 01:14:21;;;;;;;15.82;10.15;;;;;;;21.04;60.10;101155.66;685034;28;1253;-81
2023/07/09 01:14:42;;;;;;;16.17;9.85;;;;;;;21.06;60.02;101155.63;685489;28;1104;-81
2023/07/09 01:15:04;;;;;;;14.80;9.48;;;;;;;21.05;60.02;101157.41;683422;28;1396;-81
2023/07/09 01:15:25;;;;;;;16.02;9.45;;;;;;;21.07;60.21;101157.38;682473;28;1009;-81
2023/07/09 01:15:46;;;;;;;14.77;9.25;;;;;;;21.06;60.18;101158.28;688116;28;1202;-81
2023/07/09 01:16:08;;;;;;;12.32;9.02;;;;;;;21.07;60.28;101157.38;685199;28;1086;-81
2023/07/09 01:16:32;;;;;;;11.40;9.07;;;;;;;21.13;60.27;101165.28;685289;28;1810;-81
2023/07/09 01:17:00;;;;;;;11.48;9.15;;;;;;;21.07;60.31;101154.72;682579;28;1425;-81
2023/07/09 01:17:20;;;;;;;12.20;9.18;;;;;;;21.07;60.23;101160.03;687901;28;977;-81
2023/07/09 01:17:44;;;;;;;12.10;8.82;;;;;;;21.06;60.20;101159.16;685382;28;1363;-82
2023/07/09 01:18:05;;;;;;;12.65;8.48;;;;;;;21.09;60.30;101164.44;680006;29;1120;-81
2023/07/09 01:18:25;;;;;;;13.35;8.98;;;;;;;21.06;60.03;101159.16;679660;28;1063;-82
2023/07/09 01:18:46;;;;;;;15.23;9.55;;;;;;;21.01;60.03;101163.63;680096;29;1217;-81
2023/07/09 01:19:07;;;;;;;15.97;10.27;;;;;;;21.01;60.14;101158.31;685310;28;1125;-81
2023/07/09 01:19:30;;;;;;;16.25;10.40;;;;;;;20.94;60.02;101148.66;687899;28;950;-81
2023/07/09 01:19:52;;;;;;;13.88;9.82;;;;;;;20.96;60.08;101161.00;687908;28;961;-81
2023/07/09 01:20:20;;;;;;;13.15;9.40;;;;;;;21.00;60.32;101167.16;687777;28;1040;-81
2023/07/09 01:20:42;;;;;;;13.35;9.50;;;;;;;20.96;60.09;101165.44;682640;28;1375;-81
2023/07/09 01:21:15;;;;;;;14.32;9.40;;;;;;;20.99;60.42;101168.06;685227;28;1142;-82
2023/07/09 01:21:35;;;;;;;13.50;8.90;;;;;;;20.95;60.25;101167.22;685423;28;1128;-81
2023/07/09 01:22:01;;;;;;;13.20;9.40;;;;;;;20.94;60.48;101169.88;687993;28;1080;-81
2023/07/09 01:22:23;;;;;;;18.17;10.10;;;;;;;20.93;60.51;101168.13;682473;28;1128;-81
2023/07/09 01:22:43;;;;;;;18.33;10.23;;;;;;;20.86;60.24;101150.50;688132;28;1107;-81
2023/07/09 01:23:05;;;;;;;14.85;9.90;;;;;;;20.86;60.55;101155.81;685170;28;1980;-81
2023/07/09 01:23:27;;;;;;;13.20;9.50;;;;;;;20.85;60.57;101167.31;682404;28;1121;-81
2023/07/09 01:23:49;;;;;;;13.10;9.38;;;;;;;20.89;60.49;101167.25;688077;28;1014;-81
2023/07/09 01:24:37;;;;;;;14.40;9.38;;;;;;;20.90;60.75;101170.81;682064;29;1346;-81
2023/07/09 01:25:03;;;;;;;13.10;8.98;;;;;;;20.91;60.84;101172.56;682411;28;1302;-81
2023/07/09 01:25:24;;;;;;;12.30;8.80;;;;;;;20.88;60.68;101165.50;682368;28;1252;-81
2023/07/09 01:25:52;;;;;;;12.70;8.70;;;;;;;20.87;60.82;101168.16;683015;28;1369;-81
2023/07/09 01:26:19;;;;;;;16.50;9.02;;;;;;;20.89;60.81;101171.72;682335;28;1026;-81
2023/07/09 01:26:43;;;;;;;16.45;9.50;;;;;;;20.82;60.93;101169.09;677518;29;1863;-81
2023/07/09 01:27:04;;;;;;;13.05;9.35;;;;;;;20.87;60.93;101170.81;679913;29;1120;-81
2023/07/09 01:27:34;;;;;;;14.32;9.65;;;;;;;20.84;60.91;101162.91;682869;28;949;-81
2023/07/09 01:27:55;;;;;;;15.18;9.75;;;;;;;20.81;60.98;101162.03;682162;29;1338;-81
2023/07/09 01:28:16;;;;;;;15.23;9.88;;;;;;;20.86;61.00;101166.41;687107;28;1186;-81
2023/07/09 01:28:43;;;;;;;14.82;9.60;;;;;;;20.87;61.09;101162.88;685384;28;1392;-81
2023/07/09 01:29:05;;;;;;;15.38;9.48;;;;;;;20.85;61.14;101160.25;687851;28;1177;-81
2023/07/09 01:29:33;;;;;;;14.00;9.43;;;;;;;20.83;61.34;101162.00;684476;28;1317;-82
2023/07/09 01:29:55;;;;;;;15.85;9.57;;;;;;;20.91;61.25;101173.44;688091;28;961;-82
2023/07/09 01:30:24;;;;;;;18.00;9.60;;;;;;;20.84;61.35;101152.28;687224;28;1119;-81
2023/07/09 01:30:45;;;;;;;16.45;9.82;;;;;;;20.92;61.13;101161.94;685311;28;882;-81
2023/07/09 01:31:06;;;;;;;16.50;9.57;;;;;;;20.85;61.17;101152.28;682591;28;1078;-81
2023/07/09 01:31:26;;;;;;;15.85;9.68;;;;;;;20.91;61.28;101168.13;690923;28;1204;-81
2023/07/09 01:31:47;;;;;;;15.98;9.40;;;;;;;20.88;61.18;101156.66;691320;28;1199;-81
2023/07/09 01:32:09;;;;;;;14.40;9.00;;;;;;;20.94;61.07;101169.88;679880;28;1249;-82
2023/07/09 01:32:30;;;;;;;13.80;8.93;;;;;;;20.96;61.06;101168.09;685238;28;1504;-81
2023/07/09 01:32:55;;;;;;;13.67;9.40;;;;;;;20.90;61.00;101158.41;685238;28;974;-81
2023/07/09 01:33:17;;;;;;;16.50;9.82;;;;;;;20.85;61.13;101162.00;682807;28;1269;-81
2023/07/09 01:33:41;;;;;;;16.23;9.70;;;;;;;20.85;61.42;101165.56;682743;28;1242;-81
2023/07/09 01:34:02;;;;;;;19.10;9.98;;;;;;;20.78;61.39;101159.41;687872;28;1080;-81
2023/07/09 01:34:24;;;;;;;17.70;9.40;;;;;;;20.76;61.58;101155.88;687690;28;996;-82
2023/07/09 01:34:52;;;;;;;18.08;9.30;;;;;;;20.71;61.64;101155.03;685667;28;1085;-82
2023/07/09 01:35:15;;;;;;;13.55;9.10;;;;;;;20.74;61.59;101159.44;682271;29;1132;-81
2023/07/09 01:35:40;;;;;;;13.80;8.57;;;;;;;20.76;61.72;101166.50;684324;28;1386;-81
2023/07/09 01:36:01;;;;;;;12.93;8.43;;;;;;;20.72;61.60;101159.44;690213;28;1000;-81
2023/07/09 01:36:23;;;;;;;12.32;8.50;;;;;;;20.68;61.73;101157.69;693095;28;1112;-81
2023/07/09 01:36:44;;;;;;;12.68;8.77;;;;;;;20.67;61.69;101161.25;690677;28;1446;-81
2023/07/09 01:37:04;;;;;;;11.60;8.50;;;;;;;20.70;61.77;101161.25;682434;29;1140;-82
2023/07/09 01:37:27;;;;;;;12.52;8.70;;;;;;;20.69;61.95;101172.72;687688;28;1248;-81
2023/07/09 01:37:49;;;;;;;15.43;9.20;;;;;;;20.57;62.04;101138.34;687569;28;1327;-81
2023/07/09 01:38:10;;;;;;;16.40;9.70;;;;;;;20.68;62.08;101163.00;690427;28;1056;-81
2023/07/09 01:38:30;;;;;;;16.63;9.85;;;;;;;20.60;62.11;101156.88;688098;28;842;-81
2023/07/09 01:38:53;;;;;;;16.07;9.77;;;;;;;20.62;62.16;101163.03;682170;28;1205;-81
2023/07/09 01:39:14;;;;;;;17.92;9.48;;;;;;;20.61;62.11;101150.69;683978;28;1744;-81
2023/07/09 01:39:35;;;;;;;17.50;9.57;;;;;;;20.60;62.13;101155.09;687931;28;1462;-81
2023/07/09 01:39:56;;;;;;;15.43;9.35;;;;;;;20.61;62.21;101155.97;682622;29;1112;-81
2023/07/09 01:40:20;;;;;;;13.02;9.45;;;;;;;20.58;62.17;101156.88;690364;28;994;-81
2023/07/09 01:40:41;;;;;;;15.75;9.88;;;;;;;20.60;62.21;101149.78;683057;28;1195;-81
2023/07/09 01:41:02;;;;;;;16.60;10.15;;;;;;;20.65;62.15;101158.59;679987;29;1190;-81
2023/07/09 01:41:23;;;;;;;16.38;9.50;;;;;;;20.68;62.06;101165.66;690358;28;1486;-81
2023/07/09 01:41:47;;;;;;;13.88;9.20;;;;;;;20.65;62.19;101165.69;688806;28;1278;-81
2023/07/09 01:42:08;;;;;;;15.23;9.20;;;;;;;20.63;62.12;101160.38;685085;28;1267;-81
2023/07/09 01:42:29;;;;;;;13.80;9.25;;;;;;;20.59;62.17;101149.81;679924;29;965;-81
2023/07/09 01:42:51;;;;;;;14.18;9.40;;;;;;;20.60;61.81;101159.53;679965;29;2079;-81
2023/07/09 01:43:12;;;;;;;15.02;9.48;;;;;;;20.61;62.13;101163.94;686570;28;1100;-81
2023/07/09 01:43:34;;;;;;;15.23;9.43;;;;;;;20.59;62.07;101163.06;688072;28;850;-81
2023/07/09 01:43:55;;;;;;;15.32;9.40;;;;;;;20.58;62.02;101159.53;693295;28;1254;-81
2023/07/09 01:44:16;;;;;;;13.63;9.50;;;;;;;20.51;62.01;101150.75;682377;29;1064;-81
2023/07/09 01:44:38;;;;;;;13.53;9.77;;;;;;;20.49;62.02;101155.19;690778;28;1235;-81
2023/07/09 01:45:00;;;;;;;15.27;9.40;;;;;;;20.48;62.21;101156.06;690545;28;1370;-80
2023/07/09 01:45:21;;;;;;;14.52;9.07;;;;;;;20.47;62.41;101156.94;692903;28;1291;-81
2023/07/09 01:45:42;;;;;;;15.35;9.15;;;;;;;20.50;62.24;101164.00;684742;28;1148;-81
2023/07/09 01:46:03;;;;;;;13.65;9.38;;;;;;;20.45;62.14;101163.16;682590;29;1164;-81
2023/07/09 01:46:23;;;;;;;14.50;9.48;;;;;;;20.42;62.52;101156.13;690242;28;1224;-81
2023/07/09 01:46:45;;;;;;;14.10;9.20;;;;;;;20.46;62.44;101167.59;687916;28;1252;-81
2023/07/09 01:47:06;;;;;;;15.13;9.48;;;;;;;20.44;62.27;101164.94;690628;28;1169;-81
2023/07/09 01:47:27;;;;;;;15.23;9.73;;;;;;;20.38;62.42;101159.69;687812;28;1120;-81
2023/07/09 01:47:47;;;;;;;15.95;9.98;;;;;;;20.41;62.60;101159.69;688232;28;1210;-81
2023/07/09 01:48:14;;;;;;;16.60;9.60;;;;;;;20.35;62.56;101159.72;687874;28;959;-81
2023/07/09 01:48:40;;;;;;;13.98;9.05;;;;;;;20.34;62.72;101160.59;685489;28;1040;-81
2023/07/09 01:49:04;;;;;;;14.48;9.45;;;;;;;20.38;62.54;101170.28;685279;28;1092;-81
2023/07/09 01:49:29;;;;;;;13.77;10.00;;;;;;;20.37;62.68;101169.41;690652;28;1229;-81
2023/07/09 01:49:56;;;;;;;15.18;9.77;;;;;;;20.38;62.72;101175.56;690592;28;1179;-81
2023/07/09 01:50:18;;;;;;;15.13;9.45;;;;;;;20.34;62.82;101169.41;687689;28;1121;-82
2023/07/09 01:50:41;;;;;;;14.70;9.18;;;;;;;20.28;62.83;101159.75;688086;28;850;-81
2023/07/09 01:51:02;;;;;;;13.23;8.95;;;;;;;20.32;62.83;101167.66;685349;28;1437;-81